Portland, Oregon
Current Conditions -  °F | °C
As of 5:53 AM on Friday 24 Oct 2014 (Local Time) from KPDX Reporting Station
Broken Clouds Broken Clouds  
Wind Chill: 51°   Ceiling: 20000
Heat Index: 51°   Visibility: 10mi
Dew Point: 50°   Wind: 7mph
Humidity: 96%   Direction: 120°ESE
Pressure: 30.02"   Gusts: NA
Location:  45.51°N, 122.67°W
Report Text: KPDX 241253Z 12006KT 10SM FEW006 FEW055 BKN200 11/10 A3002 RMK AO2 SLP164 T01060100
Loading
Personal Weather Stations






























Interactive Weather Map
Tropical Storm Tracking
New forecast layout! Learn more

10-Day Weather Forecast

Advertisements
Track Severe Weather on mobile